OJAI/AMM METAR and TAF weather

Enter ICAO airport designator
Station Type Date Time Source
OJAI METAR 2020/07/06 20:00 UTC NOAA

OJAI 062000Z 26010KT 5000 HZ NSC 22/14 Q1006 NOSIG


Station Type Date Time Source
OJAI Decoded METAR 2020/07/06 20:00 UTC NOAA

Queen Alia Airport, Jordan (OJAI) 31-40N 035-58E
Jul 06, 2020 - 04:00 PM EDT / 2020.07.06 2000 UTC
Wind: from the W (260 degrees) at 12 MPH (10 KT):0
Visibility: 3 mile(s):0
Weather: haze
Temperature: 71 F (22 C)
Dew Point: 57 F (14 C)
Relative Humidity: 60%
Pressure (altimeter): 29.71 in. Hg (1006 hPa)
ob: OJAI 062000Z 26010KT 5000 HZ NSC 22/14 Q1006 NOSIG
cycle: 20

Station Type Date Time Source
OJAI TAF 2020/07/06 18:15 UTC NOAA

TAF TAF OJAI 061650Z 0618/0724 28010KT 6000 NSC PROB30 0712/0718 30020KT 4000 BLDU

Example: see airport list